地図

経路データ

SID SEASON NUMBER BASIN SUBBASIN NAME ISO_TIME NATURE LAT LON WMO_WIND WMO_PRES WMO_AGENCY TRACK_TYPE DIST2LAND LANDFALL IFLAG USA_AGENCY USA_ATCF_ID USA_LAT USA_LON USA_RECORD USA_STATUS USA_WIND USA_PRES USA_SSHS USA_R34_NE USA_R34_SE USA_R34_SW USA_R34_NW USA_R50_NE USA_R50_SE USA_R50_SW USA_R50_NW USA_R64_NE USA_R64_SE USA_R64_SW USA_R64_NW USA_POCI USA_ROCI USA_RMW USA_EYE TOKYO_LAT TOKYO_LON TOKYO_GRADE TOKYO_WIND TOKYO_PRES TOKYO_R50_DIR TOKYO_R50_LONG TOKYO_R50_SHORT TOKYO_R30_DIR TOKYO_R30_LONG TOKYO_R30_SHORT TOKYO_LAND CMA_LAT CMA_LON CMA_CAT CMA_WIND CMA_PRES HKO_LAT HKO_LON HKO_CAT HKO_WIND HKO_PRES NEWDELHI_LAT NEWDELHI_LON NEWDELHI_GRADE NEWDELHI_WIND NEWDELHI_PRES NEWDELHI_CI NEWDELHI_DP NEWDELHI_POCI REUNION_LAT REUNION_LON REUNION_TYPE REUNION_WIND REUNION_PRES REUNION_TNUM REUNION_CI REUNION_RMW REUNION_R34_NE REUNION_R34_SE REUNION_R34_SW REUNION_R34_NW REUNION_R50_NE REUNION_R50_SE REUNION_R50_SW REUNION_R50_NW REUNION_R64_NE REUNION_R64_SE REUNION_R64_SW REUNION_R64_NW BOM_LAT BOM_LON BOM_TYPE BOM_WIND BOM_PRES BOM_TNUM BOM_CI BOM_RMW BOM_R34_NE BOM_R34_SE BOM_R34_SW BOM_R34_NW BOM_R50_NE BOM_R50_SE BOM_R50_SW BOM_R50_NW BOM_R64_NE BOM_R64_SE BOM_R64_SW BOM_R64_NW BOM_ROCI BOM_POCI BOM_EYE BOM_POS_METHOD BOM_PRES_METHOD NADI_LAT NADI_LON NADI_CAT NADI_WIND NADI_PRES WELLINGTON_LAT WELLINGTON_LON WELLINGTON_WIND WELLINGTON_PRES DS824_LAT DS824_LON DS824_STAGE DS824_WIND DS824_PRES TD9636_LAT TD9636_LON TD9636_STAGE TD9636_WIND TD9636_PRES TD9635_LAT TD9635_LON TD9635_WIND TD9635_PRES TD9635_ROCI NEUMANN_LAT NEUMANN_LON NEUMANN_CLASS NEUMANN_WIND NEUMANN_PRES MLC_LAT MLC_LON MLC_CLASS MLC_WIND MLC_PRES USA_GUST BOM_GUST BOM_GUST_PER REUNION_GUST REUNION_GUST_PER USA_SEAHGT USA_SEARAD_NE USA_SEARAD_SE USA_SEARAD_SW USA_SEARAD_NW STORM_SPEED STORM_DIR
1906355S17060 1907 56 SI MM NOT_NAMED 1906-12-21 06:00:00 NR -17.2000 60.4000 reunion spur-split 431 431 _____O________ -1 -17.2000 60.4000 99 9.90000 2 68
1906355S17060 1907 56 SI MM NOT_NAMED 1906-12-21 09:00:00 NR -17.1575 60.5061 spur-split 438 438 _____P________ -1 -17.1575 60.5061 99 2 68
1906355S17060 1907 56 SI MM NOT_NAMED 1906-12-21 12:00:00 NR -17.1237 60.5925 spur-split 453 453 _____P________ -1 -17.1237 60.5925 99 1 69
1906355S17060 1907 56 SI MM NOT_NAMED 1906-12-21 15:00:00 NR -17.1077 60.6397 spur-split 453 453 _____P________ -1 -17.1077 60.6397 99 0 82
1906355S17060 1907 56 SI MM NOT_NAMED 1906-12-21 18:00:00 NR -17.1182 60.6281 spur-split 453 438 _____P________ -1 -17.1182 60.6281 99 1 240
1906355S17060 1907 56 SI MM NOT_NAMED 1906-12-21 21:00:00 NR -17.1640 60.5383 spur-split 438 431 _____P________ -1 -17.1640 60.5383 99 3 243
1906355S17060 1907 56 SI MM NOT_NAMED 1906-12-22 00:00:00 NR -17.2539 60.3504 spur-split 423 393 _____P________ -1 -17.2539 60.3504 99 5 244
1906355S17060 1907 56 SI MM NOT_NAMED 1906-12-22 03:00:00 NR -17.3965 60.0445 spur-split 387 343 _____P________ -1 -17.3965 60.0445 99 8 244
1906355S17060 1907 56 SI MM NOT_NAMED 1906-12-22 06:00:00 NR -17.6000 59.6000 reunion spur-split 343 281 _____O________ -1 -17.6000 59.6000 99 9.90000 11 245
1906355S17060 1907 56 SI MM NOT_NAMED 1906-12-22 09:00:00 NR -17.8682 59.0057 spur-split 281 221 _____P________ -1 -17.8682 59.0057 99 14 245
1906355S17060 1907 56 SI MM NOT_NAMED 1906-12-22 12:00:00 NR -18.1872 58.2894 spur-split 221 178 _____P________ -1 -18.1872 58.2894 99 16 245
1906355S17060 1907 56 SI MM NOT_NAMED 1906-12-22 15:00:00 NR -18.5391 57.4888 spur-split 178 154 _____P________ -1 -18.5391 57.4888 99 17 245
1906355S17060 1907 56 SI MM NOT_NAMED 1906-12-22 18:00:00 NR -18.9065 56.6427 spur-split 164 161 _____P________ -1 -18.9065 56.6427 99 18 245
1906355S17060 1907 56 SI MM NOT_NAMED 1906-12-22 21:00:00 NR -19.2722 55.7905 spur-split 190 157 _____P________ -1 -19.2722 55.7905 99 17 246
1906355S17060 1907 56 SI MM NOT_NAMED 1906-12-23 00:00:00 NR -19.6199 54.9722 spur-split 159 151 _____P________ -1 -19.6199 54.9722 99 16 246
1906355S17060 1907 56 SI MM NOT_NAMED 1906-12-23 03:00:00 NR -19.9341 54.2284 spur-split 168 160 _____P________ -1 -19.9341 54.2284 99 14 246
1906355S17060 1907 56 SI MM NOT_NAMED 1906-12-23 06:00:00 NR -20.2000 53.6000 reunion spur-split 194 194 _____O________ -1 -20.2000 53.6000 99 9.90000 11 246
1906355S17060 1907 56 SI MM NOT_NAMED 1906-12-23 09:00:00 NR -20.4072 53.1180 spur-split 231 231 _____P________ -1 -20.4072 53.1180 99 9 245
1906355S17060 1907 56 SI MM NOT_NAMED 1906-12-23 12:00:00 NR -20.5607 52.7733 spur-split 255 255 _____P________ -1 -20.5607 52.7733 99 6 244
1906355S17060 1907 56 SI MM NOT_NAMED 1906-12-23 15:00:00 NR -20.6689 52.5467 spur-split 283 283 _____P________ -1 -20.6689 52.5467 99 4 242
1906355S17060 1907 56 SI MM NOT_NAMED 1906-12-23 18:00:00 NR -20.7397 52.4188 spur-split 294 292 _____P________ -1 -20.7397 52.4188 99 2 236
1906355S17060 1907 56 SI MM NOT_NAMED 1906-12-23 21:00:00 NR -20.7807 52.3699 spur-split 292 292 _____P________ -1 -20.7807 52.3699 99 1 209
1906355S17060 1907 56 SI MM NOT_NAMED 1906-12-24 00:00:00 NR -20.7995 52.3802 spur-split 292 292 _____P________ -1 -20.7995 52.3802 99 1 114
1906355S17060 1907 56 SI MM NOT_NAMED 1906-12-24 03:00:00 NR -20.8035 52.4302 spur-split 292 282 _____P________ -1 -20.8035 52.4302 99 1 90
1906355S17060 1907 56 SI MM NOT_NAMED 1906-12-24 06:00:00 NR -20.8000 52.5000 reunion spur-split 282 _____O________ -1 -20.8000 52.5000 99 9.90000 1 87

IBTrACS Databaseについて

本データベースは、米国NOAAが公開する1842年以降の世界の熱帯低気圧のベストトラックデータアーカイブInternational Best Track Archive for Climate Stewardship (IBTrACS)を、ウェブで閲覧しやすい形式に変換したものです。

最終更新日:2021-12-03